Schoeneck, Pennsylvania
Current Conditions -  °F | °C
As of 1:53 AM on Wednesday 26 Nov 2014 (Local Time) from KLNS Reporting Station
Few Clouds Few Clouds  
Wind Chill: 40°   Ceiling: Unl
Heat Index: 40°   Visibility: 10mi
Dew Point: 32°   Wind: 3mph
Humidity: 73%   Direction: 270°W
Pressure: 30.19"   Gusts: NA
Location:  40.2484°N, 76.2239°W
Report Text: KLNS 260653Z AUTO 27003KT 10SM FEW120 04/00 A3019 RMK AO2 SLP225 T00440000
Loading
Personal Weather Stations






























Interactive Weather Map New forecast layout! Learn more

10-Day Weather Forecast

Advertisements
Track Severe Weather on mobile